createdAt,value
2022-12-02T00:01:28.750Z,-0.83
2022-12-02T00:03:56.857Z,-0.78
2022-12-02T00:06:27.342Z,-0.84
2022-12-02T00:08:57.022Z,-0.79
2022-12-02T00:11:32.104Z,-0.81
2022-12-02T00:14:03.351Z,-0.89
2022-12-02T00:16:30.768Z,-0.81
2022-12-02T00:18:58.303Z,-0.77
2022-12-02T00:21:25.826Z,-0.87
2022-12-02T00:23:53.302Z,-0.87
2022-12-02T00:26:20.870Z,-0.91
2022-12-02T00:28:48.275Z,-0.92
2022-12-02T00:31:15.735Z,-0.94
2022-12-02T00:33:43.377Z,-0.81
2022-12-02T00:36:15.857Z,-0.75
2022-12-02T00:38:43.911Z,-0.79
2022-12-02T00:41:25.321Z,-0.78
2022-12-02T00:44:11.191Z,-0.81
2022-12-02T00:46:38.645Z,-0.94
2022-12-02T00:49:12.901Z,-0.98
2022-12-02T00:51:41.800Z,-1.00
2022-12-02T00:54:10.665Z,-1.03
2022-12-02T00:56:38.291Z,-0.98
2022-12-02T00:59:06.705Z,-0.96
2022-12-02T01:01:35.838Z,-0.98
2022-12-02T01:04:05.255Z,-0.93
2022-12-02T01:06:32.623Z,-0.93
2022-12-02T01:09:00.100Z,-0.92
2022-12-02T01:11:27.582Z,-0.94
2022-12-02T01:13:54.991Z,-0.85
2022-12-02T01:16:22.511Z,-0.83
2022-12-02T01:18:49.956Z,-0.88
2022-12-02T01:21:17.401Z,-0.86
2022-12-02T01:23:44.813Z,-0.82
2022-12-02T01:26:12.243Z,-0.89
2022-12-02T01:28:39.905Z,-0.80
2022-12-02T01:31:07.387Z,-0.86
2022-12-02T01:33:34.845Z,-0.93
2022-12-02T01:36:02.395Z,-0.89
2022-12-02T01:38:29.751Z,-0.86
2022-12-02T01:40:57.320Z,-0.89
2022-12-02T01:43:24.939Z,-0.92
2022-12-02T01:45:52.981Z,-0.98
2022-12-02T01:48:20.933Z,-0.98
2022-12-02T01:50:48.731Z,-0.98
2022-12-02T01:53:15.954Z,-0.99
2022-12-02T01:55:43.495Z,-1.04
2022-12-02T01:58:13.761Z,-1.00
2022-12-02T02:00:41.731Z,-0.96
2022-12-02T02:03:09.564Z,-1.00
2022-12-02T02:05:37.736Z,-0.97
2022-12-02T02:08:07.639Z,-0.98
2022-12-02T02:10:38.134Z,-0.97
2022-12-02T02:13:07.321Z,-0.90
2022-12-02T02:15:37.537Z,-0.94
2022-12-02T02:18:05.701Z,-0.92
2022-12-02T02:20:38.643Z,-0.88
2022-12-02T02:23:06.156Z,-0.85
2022-12-02T02:25:43.672Z,-0.79
2022-12-02T02:28:11.986Z,-0.82
2022-12-02T02:30:40.696Z,-0.68
2022-12-02T02:33:11.617Z,-0.70
2022-12-02T02:35:40.196Z,-0.60
2022-12-02T02:38:11.837Z,-0.66
2022-12-02T02:40:39.914Z,-0.66
2022-12-02T02:43:08.769Z,-0.69
2022-12-02T02:45:38.635Z,-0.64
2022-12-02T02:48:09.554Z,-0.58
2022-12-02T02:50:39.692Z,-0.66
2022-12-02T02:53:08.250Z,-0.67
2022-12-02T02:55:35.971Z,-0.77
2022-12-02T02:58:33.173Z,-0.81
2022-12-02T03:01:06.287Z,-0.86
2022-12-02T03:03:38.995Z,-0.91
2022-12-02T03:06:09.527Z,-0.97
2022-12-02T03:08:41.288Z,-0.88
2022-12-02T03:11:08.915Z,-0.81
2022-12-02T03:13:38.709Z,-0.89
2022-12-02T03:16:09.799Z,-0.97
2022-12-02T03:18:38.944Z,-0.93
2022-12-02T03:21:09.177Z,-0.93
2022-12-02T03:23:37.723Z,-0.85
2022-12-02T03:26:07.280Z,-0.88
2022-12-02T03:28:38.862Z,-1.03
2022-12-02T03:31:08.821Z,-0.91
2022-12-02T03:33:38.545Z,-0.91
2022-12-02T03:36:07.489Z,-0.86
2022-12-02T03:38:36.532Z,-0.73
2022-12-02T03:41:06.043Z,-0.74
2022-12-02T03:43:34.868Z,-0.77
2022-12-02T03:46:04.084Z,-0.77
2022-12-02T03:48:31.579Z,-0.89
2022-12-02T03:50:59.176Z,-0.79
2022-12-02T03:53:28.995Z,-0.79
2022-12-02T04:00:15.899Z,-0.71
2022-12-02T04:06:50.371Z,-0.80
2022-12-02T04:09:18.157Z,-0.81
2022-12-02T04:11:45.638Z,-0.78
2022-12-02T04:14:13.017Z,-0.84
2022-12-02T04:16:40.304Z,-0.81
2022-12-02T04:19:07.723Z,-0.80
2022-12-02T04:21:35.075Z,-0.86
2022-12-02T04:24:02.426Z,-0.89
2022-12-02T04:26:29.751Z,-0.89
2022-12-02T04:28:57.045Z,-0.86
2022-12-02T04:31:24.557Z,-0.72
2022-12-02T04:33:52.071Z,-0.84
2022-12-02T04:36:19.525Z,-0.84
2022-12-02T04:38:46.814Z,-0.87
2022-12-02T04:41:14.194Z,-0.79
2022-12-02T04:43:41.600Z,-0.82
2022-12-02T04:46:08.972Z,-0.81
2022-12-02T04:48:36.452Z,-0.86
2022-12-02T04:51:03.838Z,-1.00
2022-12-02T04:53:31.086Z,-1.03
2022-12-02T04:55:58.437Z,-1.03
2022-12-02T04:58:25.808Z,-1.13
2022-12-02T05:00:53.116Z,-1.07
2022-12-02T05:03:20.888Z,-1.11
2022-12-02T05:05:48.225Z,-1.12
2022-12-02T05:08:15.553Z,-1.12
2022-12-02T05:10:43.045Z,-1.21
2022-12-02T05:13:10.352Z,-1.19
2022-12-02T05:15:37.718Z,-1.23
2022-12-02T05:18:04.985Z,-1.25
2022-12-02T05:20:32.432Z,-1.14
2022-12-02T05:22:59.749Z,-1.19
2022-12-02T05:25:27.067Z,-1.26
2022-12-02T05:27:55.866Z,-1.21
2022-12-02T05:30:24.071Z,-1.26
2022-12-02T05:32:52.616Z,-1.25
2022-12-02T05:35:20.149Z,-1.24
2022-12-02T05:37:47.471Z,-1.26
2022-12-02T05:40:14.834Z,-1.18
2022-12-02T05:46:49.818Z,-1.30
2022-12-02T05:49:20.888Z,-1.35
2022-12-02T05:52:20.857Z,-1.40
2022-12-02T05:54:48.933Z,-1.42
2022-12-02T05:57:25.987Z,-1.37
2022-12-02T06:00:19.399Z,-1.54
2022-12-02T06:02:51.561Z,-1.41
2022-12-02T06:05:41.759Z,-1.45
2022-12-02T06:08:32.863Z,-1.50
2022-12-02T06:11:21.713Z,-1.40
2022-12-02T06:13:49.132Z,-1.52
2022-12-02T06:16:23.662Z,-1.44
2022-12-02T06:18:51.573Z,-1.50
2022-12-02T06:21:22.621Z,-1.49
2022-12-02T06:23:52.474Z,-1.46
2022-12-02T06:26:21.953Z,-1.48
2022-12-02T06:33:03.032Z,-1.44
2022-12-02T06:35:33.215Z,-1.48
2022-12-02T06:38:03.445Z,-1.44
2022-12-02T06:40:36.528Z,-1.48
2022-12-02T06:43:13.694Z,-1.49
2022-12-02T06:45:42.881Z,-1.45
2022-12-02T06:48:26.863Z,-1.47
2022-12-02T06:50:56.333Z,-1.52
2022-12-02T06:53:53.283Z,-1.43
2022-12-02T06:56:24.889Z,-1.55
2022-12-02T06:58:55.113Z,-1.48
2022-12-02T07:01:26.836Z,-1.41
2022-12-02T07:03:57.551Z,-1.46
2022-12-02T07:06:26.881Z,-1.45
2022-12-02T07:09:17.670Z,-1.49
2022-12-02T07:11:53.149Z,-1.46
2022-12-02T07:14:53.209Z,-1.46
2022-12-02T07:17:25.640Z,-1.46
2022-12-02T07:20:07.082Z,-1.44
2022-12-02T07:22:45.593Z,-1.47
2022-12-02T07:25:42.366Z,-1.38
2022-12-02T07:28:38.389Z,-1.45
2022-12-02T07:31:44.814Z,-1.49
2022-12-02T07:34:13.519Z,-1.46
2022-12-02T07:36:41.008Z,-1.54
2022-12-02T07:39:08.523Z,-1.46
2022-12-02T07:41:42.325Z,-1.42
2022-12-02T07:44:09.804Z,-1.52
2022-12-02T07:46:37.282Z,-1.43
2022-12-02T07:49:04.810Z,-1.43
2022-12-02T07:51:32.482Z,-1.43
2022-12-02T07:53:59.908Z,-1.44
2022-12-02T07:56:27.376Z,-1.47
2022-12-02T07:59:12.397Z,-1.50
2022-12-02T08:01:41.039Z,-1.51
2022-12-02T08:04:09.168Z,-1.41
2022-12-02T08:06:39.829Z,-1.44
2022-12-02T08:09:09.196Z,-1.55
2022-12-02T08:11:37.136Z,-1.57
2022-12-02T08:14:04.940Z,-1.57
2022-12-02T08:16:32.710Z,-1.49
2022-12-02T08:19:01.346Z,-1.53
2022-12-02T08:21:30.757Z,-1.55
2022-12-02T08:23:59.084Z,-1.54
2022-12-02T08:26:26.678Z,-1.41
2022-12-02T08:28:54.520Z,-1.49
2022-12-02T08:31:22.466Z,-1.46
2022-12-02T08:33:50.481Z,-1.51
2022-12-02T08:36:19.277Z,-1.53
2022-12-02T08:38:46.939Z,-1.52
2022-12-02T08:41:14.766Z,-1.50
2022-12-02T08:43:42.583Z,-1.55
2022-12-02T08:46:11.247Z,-1.43
2022-12-02T08:48:38.835Z,-1.49
2022-12-02T08:51:06.385Z,-1.47
2022-12-02T08:53:33.793Z,-1.45
2022-12-02T08:56:01.564Z,-1.41
2022-12-02T08:58:28.905Z,-1.41
2022-12-02T09:00:56.351Z,-1.48
2022-12-02T09:03:23.721Z,-1.41
2022-12-02T09:05:51.386Z,-1.41
2022-12-02T09:08:19.153Z,-1.47
2022-12-02T09:10:46.873Z,-1.44
2022-12-02T09:13:14.065Z,-1.42
2022-12-02T09:15:41.553Z,-1.42
2022-12-02T09:18:14.038Z,-1.38
2022-12-02T09:20:42.651Z,-1.39
2022-12-02T09:23:10.141Z,-1.41
2022-12-02T09:25:37.796Z,-1.39
2022-12-02T09:28:05.255Z,-1.43
2022-12-02T09:30:32.699Z,-1.43
2022-12-02T09:33:00.150Z,-1.45
2022-12-02T09:35:27.727Z,-1.50
2022-12-02T09:37:55.279Z,-1.44
2022-12-02T09:40:23.373Z,-1.43
2022-12-02T09:42:51.137Z,-1.48
2022-12-02T09:45:18.413Z,-1.47
2022-12-02T09:47:45.865Z,-1.46
2022-12-02T09:50:14.943Z,-1.47
2022-12-02T09:52:42.635Z,-1.52
2022-12-02T09:55:16.394Z,-1.48
2022-12-02T09:57:44.840Z,-1.49
2022-12-02T10:00:18.435Z,-1.45
2022-12-02T10:02:49.324Z,-1.43
2022-12-02T10:05:18.644Z,-1.37
2022-12-02T10:07:47.637Z,-1.31
2022-12-02T10:10:19.840Z,-1.22
2022-12-02T10:12:48.159Z,-1.28
2022-12-02T10:15:20.333Z,-1.31
2022-12-02T10:17:48.166Z,-1.34
2022-12-02T10:20:19.092Z,-1.41
2022-12-02T10:23:20.680Z,-1.42
2022-12-02T10:25:54.484Z,-1.38
2022-12-02T10:28:31.364Z,-1.42
2022-12-02T10:31:05.066Z,-1.43
2022-12-02T10:33:35.540Z,-1.49
2022-12-02T10:36:03.536Z,-1.45
2022-12-02T10:38:44.591Z,-1.39
2022-12-02T10:41:15.374Z,-1.37
2022-12-02T10:43:52.889Z,-1.32
2022-12-02T10:46:21.695Z,-1.30
2022-12-02T10:48:50.456Z,-1.34
2022-12-02T10:51:20.147Z,-1.36
2022-12-02T10:53:57.247Z,-1.41
2022-12-02T10:56:24.709Z,-1.31
2022-12-02T10:58:52.876Z,-1.34
2022-12-02T11:01:21.453Z,-1.32
2022-12-02T11:03:49.525Z,-1.32
2022-12-02T11:06:20.530Z,-1.32
2022-12-02T11:08:49.287Z,-1.23
2022-12-02T11:11:37.001Z,-1.25
2022-12-02T11:14:09.958Z,-1.15
2022-12-02T11:16:43.477Z,-1.20
2022-12-02T11:19:45.549Z,-1.12
2022-12-02T11:22:47.831Z,-1.30
2022-12-02T11:25:43.135Z,-1.34
2022-12-02T11:28:29.376Z,-1.27
2022-12-02T11:31:12.348Z,-1.32
2022-12-02T11:33:53.545Z,-1.36
2022-12-02T11:36:25.327Z,-1.44
2022-12-02T11:38:52.732Z,-1.44
2022-12-02T11:41:29.586Z,-1.41
2022-12-02T11:44:00.387Z,-1.42
2022-12-02T11:46:43.594Z,-1.37
2022-12-02T11:49:25.253Z,-1.42
2022-12-02T11:52:07.945Z,-1.49
2022-12-02T11:54:39.296Z,-1.47
2022-12-02T11:57:07.681Z,-1.48
2022-12-02T11:59:36.935Z,-1.48
2022-12-02T12:02:24.556Z,-1.57
2022-12-02T12:05:04.710Z,-1.49
2022-12-02T12:07:42.622Z,-1.48
2022-12-02T12:10:42.800Z,-1.50
2022-12-02T12:13:20.459Z,-1.56
2022-12-02T12:16:02.475Z,-1.53
2022-12-02T12:18:46.057Z,-1.51
2022-12-02T12:21:33.423Z,-1.53
2022-12-02T12:24:22.419Z,-1.50
2022-12-02T12:26:54.325Z,-1.51
2022-12-02T12:29:24.455Z,-1.53
2022-12-02T12:31:51.961Z,-1.43
2022-12-02T12:34:19.434Z,-1.60
2022-12-02T12:36:47.887Z,-1.49
2022-12-02T12:39:16.389Z,-1.51
2022-12-02T12:41:59.590Z,-1.47
2022-12-02T12:44:30.804Z,-1.53
2022-12-02T12:47:00.725Z,-1.47
2022-12-02T12:49:29.821Z,-1.51
2022-12-02T12:51:57.360Z,-1.53
2022-12-02T12:54:24.753Z,-1.44
2022-12-02T12:56:52.404Z,-1.49
2022-12-02T12:59:20.060Z,-1.55
2022-12-02T13:01:48.281Z,-1.53
2022-12-02T13:04:16.011Z,-1.48
2022-12-02T13:06:43.689Z,-1.50
2022-12-02T13:09:12.761Z,-1.46
2022-12-02T13:11:40.633Z,-1.45
2022-12-02T13:14:08.646Z,-1.42
2022-12-02T13:16:36.377Z,-1.42
2022-12-02T13:19:03.934Z,-1.43
2022-12-02T13:21:31.872Z,-1.51
2022-12-02T13:23:59.389Z,-1.47
2022-12-02T13:26:26.824Z,-1.52
2022-12-02T13:28:54.216Z,-1.46
2022-12-02T13:31:21.768Z,-1.51
2022-12-02T13:33:49.544Z,-1.52
2022-12-02T13:36:17.027Z,-1.46
2022-12-02T13:38:44.557Z,-1.47
2022-12-02T13:41:11.969Z,-1.48
2022-12-02T13:43:39.562Z,-1.47
2022-12-02T13:46:07.099Z,-1.50
2022-12-02T13:48:34.644Z,-1.51
2022-12-02T13:51:02.773Z,-1.48
2022-12-02T13:53:30.258Z,-1.44
2022-12-02T13:55:57.783Z,-1.53
2022-12-02T13:58:25.693Z,-1.53
2022-12-02T14:00:53.257Z,-1.59
2022-12-02T14:03:20.493Z,-1.50
2022-12-02T14:05:47.955Z,-1.54
2022-12-02T14:08:16.432Z,-1.39
2022-12-02T14:10:45.328Z,-1.42
2022-12-02T14:13:18.207Z,-1.44
2022-12-02T14:15:49.999Z,-1.45
2022-12-02T14:18:18.107Z,-1.44
2022-12-02T14:20:45.759Z,-1.37
2022-12-02T14:23:13.660Z,-1.40
2022-12-02T14:25:40.986Z,-1.44
2022-12-02T14:28:08.546Z,-1.49
2022-12-02T14:30:36.148Z,-1.48
2022-12-02T14:33:03.725Z,-1.40
2022-12-02T14:35:31.411Z,-1.50
2022-12-02T14:37:58.838Z,-1.48
2022-12-02T14:40:28.506Z,-1.42
2022-12-02T14:42:56.038Z,-1.43
2022-12-02T14:45:24.107Z,-1.41
2022-12-02T14:47:52.015Z,-1.43
2022-12-02T14:50:20.542Z,-1.42
2022-12-02T14:52:48.023Z,-1.42
2022-12-02T14:55:15.752Z,-1.51
2022-12-02T14:57:44.126Z,-1.50
2022-12-02T15:00:13.831Z,-1.40
2022-12-02T15:02:41.376Z,-1.35
2022-12-02T15:05:14.194Z,-1.48
2022-12-02T15:07:42.357Z,-1.57
2022-12-02T15:10:11.408Z,-1.52
2022-12-02T15:12:39.066Z,-1.55
2022-12-02T15:17:55.360Z,-1.58
2022-12-02T15:20:24.446Z,-1.60
2022-12-02T15:22:51.921Z,-1.56
2022-12-02T15:25:19.417Z,-1.59
2022-12-02T15:27:46.844Z,-1.63
2022-12-02T15:30:14.790Z,-1.60
2022-12-02T15:32:42.370Z,-1.53
2022-12-02T15:35:12.396Z,-1.59
2022-12-02T15:37:40.726Z,-1.55
2022-12-02T15:40:09.984Z,-1.61
2022-12-02T15:42:37.474Z,-1.57
2022-12-02T15:45:05.358Z,-1.57
2022-12-02T15:47:32.691Z,-1.57
2022-12-02T15:50:00.840Z,-1.56
2022-12-02T15:52:28.330Z,-1.56
2022-12-02T15:54:55.814Z,-1.54
2022-12-02T15:57:23.179Z,-1.55
2022-12-02T15:59:50.536Z,-1.61
2022-12-02T16:02:18.374Z,-1.55
2022-12-02T16:04:46.116Z,-1.60
2022-12-02T16:07:13.578Z,-1.54
2022-12-02T16:09:41.320Z,-1.61
2022-12-02T16:12:08.800Z,-1.59
2022-12-02T16:14:36.409Z,-1.57
2022-12-02T16:17:04.648Z,-1.61
2022-12-02T16:19:32.333Z,-1.61
2022-12-02T16:21:59.685Z,-1.59
2022-12-02T16:24:27.161Z,-1.59
2022-12-02T16:26:55.784Z,-1.60
2022-12-02T16:29:23.392Z,-1.63
2022-12-02T16:31:50.957Z,-1.62
2022-12-02T16:34:21.647Z,-1.66
2022-12-02T16:36:49.713Z,-1.62
2022-12-02T16:39:17.485Z,-1.66
2022-12-02T16:41:44.895Z,-1.68
2022-12-02T16:44:12.297Z,-1.65
2022-12-02T16:46:39.739Z,-1.71
2022-12-02T16:49:10.004Z,-1.69
2022-12-02T16:51:37.961Z,-1.72
2022-12-02T16:54:05.252Z,-1.72
2022-12-02T16:56:33.394Z,-1.73
2022-12-02T16:59:00.889Z,-1.71
2022-12-02T17:01:28.497Z,-1.73
2022-12-02T17:03:57.801Z,-1.73
2022-12-02T17:06:25.333Z,-1.76
2022-12-02T17:08:55.796Z,-1.71
2022-12-02T17:11:24.731Z,-1.74
2022-12-02T17:13:52.293Z,-1.70
2022-12-02T17:16:19.785Z,-1.73
2022-12-02T17:18:47.797Z,-1.75
2022-12-02T17:21:15.814Z,-1.74
2022-12-02T17:23:43.320Z,-1.74
2022-12-02T17:26:10.972Z,-1.74
2022-12-02T17:28:38.376Z,-1.74
2022-12-02T17:31:06.311Z,-1.74
2022-12-02T17:33:33.823Z,-1.73
2022-12-02T17:36:01.422Z,-1.75
2022-12-02T17:38:28.861Z,-1.74
2022-12-02T17:41:11.263Z,-1.77
2022-12-02T17:43:41.601Z,-1.74
2022-12-02T17:46:09.419Z,-1.69
2022-12-02T17:48:36.771Z,-1.71
2022-12-02T17:51:06.555Z,-1.74
2022-12-02T17:53:34.242Z,-1.75
2022-12-02T17:56:01.670Z,-1.77
2022-12-02T17:58:29.185Z,-1.76
2022-12-02T18:00:57.469Z,-1.77
2022-12-02T18:03:25.275Z,-1.73
2022-12-02T18:05:53.827Z,-1.77
2022-12-02T18:08:21.293Z,-1.73
2022-12-02T18:10:49.012Z,-1.73
2022-12-02T18:13:16.918Z,-1.75
2022-12-02T18:15:44.749Z,-1.76
2022-12-02T18:18:12.251Z,-1.76
2022-12-02T18:20:40.026Z,-1.79
2022-12-02T18:23:07.370Z,-1.75
2022-12-02T18:25:34.842Z,-1.78
2022-12-02T18:28:02.461Z,-1.79
2022-12-02T18:30:30.126Z,-1.80
2022-12-02T18:32:57.633Z,-1.83
2022-12-02T18:35:26.383Z,-1.82
2022-12-02T18:37:53.902Z,-1.81
2022-12-02T18:40:21.744Z,-1.78
2022-12-02T18:42:50.088Z,-1.82
2022-12-02T18:45:18.057Z,-1.84
2022-12-02T18:47:45.533Z,-1.89
2022-12-02T18:50:13.859Z,-1.88
2022-12-02T18:52:41.734Z,-1.85
2022-12-02T18:55:10.480Z,-1.85
2022-12-02T18:57:37.864Z,-1.91
2022-12-02T19:00:08.428Z,-1.88
2022-12-02T19:02:35.905Z,-1.91
2022-12-02T19:05:03.486Z,-1.88
2022-12-02T19:07:31.246Z,-1.84
2022-12-02T19:09:58.923Z,-1.89
2022-12-02T19:12:26.574Z,-1.89
2022-12-02T19:14:54.244Z,-1.92
2022-12-02T19:17:21.931Z,-1.91
2022-12-02T19:19:49.514Z,-1.92
2022-12-02T19:22:17.288Z,-1.90
2022-12-02T19:24:44.643Z,-1.92
2022-12-02T19:27:19.027Z,-1.93
2022-12-02T19:30:00.080Z,-1.94
2022-12-02T19:32:27.604Z,-1.93
2022-12-02T19:34:55.179Z,-1.95
2022-12-02T19:37:23.387Z,-1.92
2022-12-02T19:39:51.190Z,-1.89
2022-12-02T19:42:18.856Z,-1.96
2022-12-02T19:44:46.373Z,-1.95
2022-12-02T19:47:13.766Z,-1.92
2022-12-02T19:49:41.262Z,-1.93
2022-12-02T19:52:08.664Z,-1.96
2022-12-02T19:54:36.275Z,-1.95
2022-12-02T19:57:03.740Z,-1.91
2022-12-02T19:59:31.338Z,-1.98
2022-12-02T20:01:58.899Z,-1.95
2022-12-02T20:04:40.751Z,-1.97
2022-12-02T20:07:09.686Z,-1.92
2022-12-02T20:09:37.229Z,-1.99
2022-12-02T20:12:04.724Z,-1.98
2022-12-02T20:14:32.193Z,-2.00
2022-12-02T20:16:59.628Z,-2.04
2022-12-02T20:19:27.081Z,-2.00
2022-12-02T20:21:54.437Z,-1.99
2022-12-02T20:24:22.007Z,-2.06
2022-12-02T20:26:49.482Z,-2.02
2022-12-02T20:29:17.427Z,-2.01
2022-12-02T20:31:45.265Z,-2.03
2022-12-02T20:34:12.862Z,-2.01
2022-12-02T20:36:40.531Z,-2.00
2022-12-02T20:39:07.971Z,-1.97
2022-12-02T20:41:37.224Z,-2.02
2022-12-02T20:44:04.662Z,-2.00
2022-12-02T20:46:32.357Z,-1.99
2022-12-02T20:49:00.011Z,-1.99
2022-12-02T20:51:27.733Z,-2.02
2022-12-02T20:53:55.175Z,-2.04
2022-12-02T20:56:22.887Z,-2.08
2022-12-02T20:58:50.909Z,-2.07
2022-12-02T21:01:18.389Z,-2.09
2022-12-02T21:03:45.893Z,-2.06
2022-12-02T21:06:13.377Z,-2.11
2022-12-02T21:08:40.886Z,-2.14
2022-12-02T21:11:08.591Z,-2.13
2022-12-02T21:13:35.957Z,-2.13
2022-12-02T21:16:03.484Z,-2.19
2022-12-02T21:18:35.009Z,-2.18
2022-12-02T21:21:05.569Z,-2.24
2022-12-02T21:23:32.944Z,-2.22
2022-12-02T21:26:00.467Z,-2.16
2022-12-02T21:28:27.963Z,-2.20
2022-12-02T21:30:55.523Z,-2.16
2022-12-02T21:33:22.946Z,-2.11
2022-12-02T21:35:50.598Z,-2.20
2022-12-02T21:38:18.044Z,-2.15
2022-12-02T21:40:45.509Z,-2.16
2022-12-02T21:43:16.149Z,-2.25
2022-12-02T21:45:44.193Z,-2.23
2022-12-02T21:48:11.522Z,-2.25
2022-12-02T21:50:39.073Z,-2.28
2022-12-02T21:53:06.429Z,-2.31
2022-12-02T21:55:33.934Z,-2.31
2022-12-02T21:58:01.397Z,-2.26
2022-12-02T22:00:29.131Z,-2.30
2022-12-02T22:02:56.520Z,-2.30
2022-12-02T22:05:23.864Z,-2.31
2022-12-02T22:07:51.361Z,-2.36
2022-12-02T22:10:22.368Z,-2.40
2022-12-02T22:12:50.650Z,-2.41
2022-12-02T22:15:21.151Z,-2.40
2022-12-02T22:17:48.833Z,-2.34
2022-12-02T22:20:18.172Z,-2.39
2022-12-02T22:22:45.768Z,-2.38
2022-12-02T22:25:13.304Z,-2.39
2022-12-02T22:27:40.746Z,-2.29
2022-12-02T22:30:09.720Z,-2.36
2022-12-02T22:32:37.221Z,-2.34
2022-12-02T22:35:05.120Z,-2.25
2022-12-02T22:37:32.409Z,-2.37
2022-12-02T22:39:59.787Z,-2.41
2022-12-02T22:42:27.306Z,-2.40
2022-12-02T22:44:55.075Z,-2.42
2022-12-02T22:47:22.781Z,-2.43
2022-12-02T22:49:50.437Z,-2.46
2022-12-02T22:52:17.769Z,-2.47
2022-12-02T22:54:45.209Z,-2.43
2022-12-02T22:57:12.604Z,-2.45
2022-12-02T22:59:40.071Z,-2.51
2022-12-02T23:02:08.209Z,-2.43
2022-12-02T23:04:37.889Z,-2.42
2022-12-02T23:07:05.330Z,-2.43
2022-12-02T23:09:32.759Z,-2.37
2022-12-02T23:12:00.148Z,-2.40
2022-12-02T23:14:27.523Z,-2.54
2022-12-02T23:16:55.055Z,-2.47
2022-12-02T23:19:22.637Z,-2.45
2022-12-02T23:21:50.185Z,-2.52
2022-12-02T23:24:17.470Z,-2.49
2022-12-02T23:26:45.038Z,-2.46
2022-12-02T23:29:12.467Z,-2.47
2022-12-02T23:31:39.971Z,-2.49
2022-12-02T23:34:07.846Z,-2.50
2022-12-02T23:36:35.402Z,-2.55
2022-12-02T23:39:02.630Z,-2.58
2022-12-02T23:41:29.796Z,-2.54
2022-12-02T23:43:56.982Z,-2.54
2022-12-02T23:46:24.208Z,-2.56
2022-12-02T23:48:51.384Z,-2.62
2022-12-02T23:51:23.780Z,-2.60
2022-12-02T23:53:53.979Z,-2.59
2022-12-02T23:56:21.220Z,-2.62
2022-12-02T23:58:48.595Z,-2.57
